ARG1431 SAVC-SAZN
Flight info
| Callsign | ARG1431 |
|---|---|
| Flight time | N/A |
| Altitude | FL380 |
| Route | PUBL2G PUBLO UT105 SIMOT ILTOS |
| Aircraft | B737/M-SDE2E3FGHIRWXY/LB1 |
Departure
| Time | N/A |
|---|---|
| Airport | General Enrique Mosconi International Airport (SAVC) |
Arrival
| Time | 2026-05-04 15:35 |
|---|---|
| Airport | Presidente Perón International Airport (SAZN) |
| Time | Latitude | Longitude | Altitude | Speed | Heading |
|---|---|---|---|---|---|
| 2026-05-04 15:09 | -40.84345 | -67.97462 | 37798 ft | 425 kts | 337° |
| 2026-05-04 15:09 | -40.78401 | -67.98204 | 37805 ft | 428 kts | 338° |
| 2026-05-04 15:10 | -40.72479 | -67.98927 | 36991 ft | 425 kts | 338° |
| 2026-05-04 15:10 | -40.69529 | -67.99286 | 35836 ft | 434 kts | 339° |
| 2026-05-04 15:10 | -40.63498 | -67.99974 | 34256 ft | 434 kts | 340° |
| 2026-05-04 15:11 | -40.60497 | -68.00279 | 33688 ft | 431 kts | 340° |
| 2026-05-04 15:11 | -40.57513 | -68.00580 | 33071 ft | 432 kts | 341° |
| 2026-05-04 15:11 | -40.54516 | -68.00888 | 32598 ft | 434 kts | 341° |
| 2026-05-04 15:11 | -40.51512 | -68.01203 | 32069 ft | 435 kts | 341° |
| 2026-05-04 15:12 | -40.48521 | -68.01513 | 31524 ft | 432 kts | 341° |
| 2026-05-04 15:12 | -40.45544 | -68.01819 | 30979 ft | 429 kts | 342° |
| 2026-05-04 15:12 | -40.43559 | -68.02023 | 30610 ft | 426 kts | 342° |
| 2026-05-04 15:12 | -40.39648 | -68.02427 | 29875 ft | 422 kts | 342° |
| 2026-05-04 15:13 | -40.37712 | -68.02624 | 29504 ft | 420 kts | 343° |
| 2026-05-04 15:13 | -40.34821 | -68.02897 | 28958 ft | 417 kts | 343° |
| 2026-05-04 15:13 | -40.31939 | -68.03154 | 28407 ft | 414 kts | 343° |
| 2026-05-04 15:13 | -40.28135 | -68.03485 | 27696 ft | 409 kts | 344° |
| 2026-05-04 15:14 | -40.25314 | -68.03730 | 27158 ft | 406 kts | 344° |
| 2026-05-04 15:14 | -40.23435 | -68.03893 | 26795 ft | 404 kts | 343° |
| 2026-05-04 15:14 | -40.19727 | -68.04218 | 26084 ft | 399 kts | 344° |
| 2026-05-04 15:14 | -40.16970 | -68.04463 | 25556 ft | 396 kts | 344° |
| 2026-05-04 15:15 | -40.14241 | -68.04705 | 25023 ft | 393 kts | 344° |
| 2026-05-04 15:15 | -40.11536 | -68.04946 | 24497 ft | 390 kts | 344° |
| 2026-05-04 15:15 | -40.08847 | -68.05187 | 23976 ft | 386 kts | 345° |
| 2026-05-04 15:16 | -40.03545 | -68.05662 | 22951 ft | 380 kts | 345° |
| 2026-05-04 15:16 | -40.00908 | -68.05898 | 22440 ft | 377 kts | 345° |
| 2026-05-04 15:16 | -39.95728 | -68.06362 | 21414 ft | 372 kts | 345° |
| 2026-05-04 15:17 | -39.94024 | -68.06514 | 21078 ft | 370 kts | 345° |
| 2026-05-04 15:17 | -39.88096 | -68.07043 | 19894 ft | 364 kts | 346° |
| 2026-05-04 15:17 | -39.85587 | -68.07266 | 19391 ft | 361 kts | 346° |
| 2026-05-04 15:18 | -39.83080 | -68.07488 | 18893 ft | 358 kts | 346° |
| 2026-05-04 15:18 | -39.80615 | -68.07707 | 18395 ft | 355 kts | 346° |
| 2026-05-04 15:18 | -39.78174 | -68.07931 | 17891 ft | 352 kts | 346° |
| 2026-05-04 15:19 | -39.73347 | -68.08388 | 16914 ft | 347 kts | 346° |
| 2026-05-04 15:19 | -39.71739 | -68.08541 | 16585 ft | 345 kts | 346° |
| 2026-05-04 15:19 | -39.66209 | -68.09062 | 15438 ft | 339 kts | 346° |
| 2026-05-04 15:20 | -39.63872 | -68.09280 | 14950 ft | 337 kts | 347° |
| 2026-05-04 15:20 | -39.61556 | -68.09495 | 14460 ft | 334 kts | 347° |
| 2026-05-04 15:20 | -39.60024 | -68.09638 | 14132 ft | 332 kts | 347° |
| 2026-05-04 15:20 | -39.57742 | -68.09851 | 13650 ft | 328 kts | 347° |
| 2026-05-04 15:21 | -39.54726 | -68.10132 | 13025 ft | 324 kts | 347° |
| 2026-05-04 15:21 | -39.52498 | -68.10339 | 12554 ft | 320 kts | 347° |
| 2026-05-04 15:21 | -39.48823 | -68.10682 | 11764 ft | 315 kts | 347° |
| 2026-05-04 15:22 | -39.45918 | -68.10921 | 11141 ft | 314 kts | 349° |
| 2026-05-04 15:22 | -39.44461 | -68.10840 | 10832 ft | 319 kts | 358° |
| 2026-05-04 15:22 | -39.40223 | -68.09079 | 10370 ft | 313 kts | 13° |
| 2026-05-04 15:23 | -39.37610 | -68.07666 | 10235 ft | 300 kts | 12° |
| 2026-05-04 15:23 | -39.35693 | -68.06670 | 9976 ft | 292 kts | 11° |
| 2026-05-04 15:23 | -39.33812 | -68.05740 | 9630 ft | 288 kts | 10° |
| 2026-05-04 15:23 | -39.31957 | -68.04847 | 9380 ft | 282 kts | 10° |
| 2026-05-04 15:24 | -39.28949 | -68.03415 | 8975 ft | 272 kts | 10° |
| 2026-05-04 15:24 | -39.24896 | -68.01489 | 8398 ft | 260 kts | 11° |
| 2026-05-04 15:25 | -39.23208 | -68.00685 | 8145 ft | 253 kts | 10° |
| 2026-05-04 15:25 | -39.21583 | -67.99910 | 7900 ft | 246 kts | 10° |
| 2026-05-04 15:25 | -39.20528 | -67.99408 | 7736 ft | 242 kts | 10° |
| 2026-05-04 15:26 | -39.16936 | -67.97706 | 7163 ft | 231 kts | 11° |
| 2026-05-04 15:26 | -39.15932 | -67.97230 | 6994 ft | 228 kts | 11° |
| 2026-05-04 15:26 | -39.13012 | -67.95848 | 6502 ft | 221 kts | 11° |
| 2026-05-04 15:27 | -39.11582 | -67.95171 | 6257 ft | 218 kts | 12° |
| 2026-05-04 15:27 | -39.08313 | -67.93622 | 5693 ft | 210 kts | 12° |
| 2026-05-04 15:28 | -39.05627 | -67.92373 | 5194 ft | 201 kts | 9° |
| 2026-05-04 15:28 | -39.04287 | -67.92119 | 4945 ft | 190 kts | 353° |
| 2026-05-04 15:28 | -39.01703 | -67.92223 | 4454 ft | 183 kts | 353° |
| 2026-05-04 15:29 | -39.00867 | -67.92227 | 4316 ft | 180 kts | 354° |
| 2026-05-04 15:30 | -38.95895 | -67.92638 | 3561 ft | 155 kts | 320° |
| 2026-05-04 15:30 | -38.94900 | -67.95910 | 3110 ft | 154 kts | 268° |
| 2026-05-04 15:31 | -38.95106 | -67.98657 | 2771 ft | 155 kts | 265° |
| 2026-05-04 15:31 | -38.95325 | -68.00469 | 2550 ft | 147 kts | 261° |
| 2026-05-04 15:32 | -38.95607 | -68.03719 | 1935 ft | 144 kts | 281° |
| 2026-05-04 15:32 | -38.95358 | -68.06185 | 1678 ft | 138 kts | 268° |
| 2026-05-04 15:33 | -38.95256 | -68.08611 | 1514 ft | 128 kts | 288° |
| 2026-05-04 15:34 | -38.94893 | -68.12059 | 1228 ft | 135 kts | 270° |
| 2026-05-04 15:34 | -38.94887 | -68.13266 | 1066 ft | 137 kts | 270° |
| 2026-05-04 15:34 | -38.94901 | -68.15466 | 888 ft | 71 kts | 271° |
| 2026-05-04 15:35 | -38.94920 | -68.16036 | 888 ft | 10 kts | 248° |
| 2026-05-04 15:35 | -38.94917 | -68.16105 | 888 ft | 8 kts | 353° |
| 2026-05-04 15:35 | -38.94900 | -68.16023 | 888 ft | 8 kts | 90° |
| 2026-05-04 15:36 | -38.94900 | -68.15890 | 888 ft | 7 kts | 90° |
| 2026-05-04 15:36 | -38.94900 | -68.15824 | 888 ft | 9 kts | 90° |
| 2026-05-04 15:36 | -38.94901 | -68.15732 | 888 ft | 11 kts | 90° |
| 2026-05-04 15:37 | -38.94901 | -68.15664 | 888 ft | 12 kts | 90° |
| 2026-05-04 15:37 | -38.94901 | -68.15521 | 887 ft | 12 kts | 89° |
| 2026-05-04 15:37 | -38.94901 | -68.15448 | 887 ft | 12 kts | 89° |
| 2026-05-04 15:37 | -38.94899 | -68.15298 | 887 ft | 13 kts | 89° |
| 2026-05-04 15:38 | -38.94901 | -68.15185 | 887 ft | 13 kts | 97° |
| 2026-05-04 15:38 | -38.94922 | -68.15116 | 887 ft | 12 kts | 123° |
| 2026-05-04 15:38 | -38.94979 | -68.15035 | 887 ft | 12 kts | 135° |
| 2026-05-04 15:38 | -38.95038 | -68.14961 | 887 ft | 12 kts | 135° |
| 2026-05-04 15:39 | -38.95087 | -68.14880 | 888 ft | 11 kts | 109° |
| 2026-05-04 15:39 | -38.95093 | -68.14781 | 888 ft | 11 kts | 90° |
| 2026-05-04 15:39 | -38.95093 | -68.14589 | 889 ft | 10 kts | 90° |
| 2026-05-04 15:40 | -38.95093 | -68.14497 | 889 ft | 10 kts | 90° |
| 2026-05-04 15:40 | -38.95093 | -68.14407 | 889 ft | 10 kts | 90° |
| 2026-05-04 15:40 | -38.95093 | -68.14293 | 889 ft | 9 kts | 89° |
| 2026-05-04 15:40 | -38.95092 | -68.14237 | 889 ft | 9 kts | 89° |
| 2026-05-04 15:41 | -38.95095 | -68.14169 | 889 ft | 2 kts | 115° |
| 2026-05-04 15:41 | -38.95103 | -68.14162 | 889 ft | 3 kts | 162° |
| 2026-05-04 15:41 | -38.95134 | -68.14160 | 889 ft | 4 kts | 179° |
| 2026-05-04 15:41 | -38.95159 | -68.14160 | 889 ft | 0 kts | 179° |